Time;durP1;ratioP1;P1;durP2;ratioP2;P2;SDS_P1;SDS_P2;PMS_P1;PMS_P2;Temp;Humidity;BMP_temperature;BMP_pressure;BME280_temperature;BME280_humidity;BME280_pressure;Samples;Min_cycle;Max_cycle;Signal;HPM_P1;HPM_P2
2022/04/02 00:01:25;;;;;;;3.93;1.80;;;3.40;1.00;;;;;;5027378;28;20215;-85
2022/04/02 00:03:54;;;;;;;2.20;1.70;;;3.40;1.00;;;;;;5043831;28;20222;-86
2022/04/02 00:06:21;;;;;;;3.30;1.93;;;3.40;1.00;;;;;;5026880;28;20565;-86
2022/04/02 00:08:49;;;;;;;4.47;1.97;;;3.40;1.00;;;;;;5028827;28;20243;-84
2022/04/02 00:11:16;;;;;;;3.80;1.90;;;3.40;1.00;;;;;;5030738;28;20208;-87
2022/04/02 00:13:43;;;;;;;2.60;1.80;;;3.50;1.00;;;;;;5054044;28;20204;-85
2022/04/02 00:16:10;;;;;;;2.00;1.30;;;3.50;1.00;;;;;;5035245;28;20321;-85
2022/04/02 00:18:39;;;;;;;3.10;1.67;;;3.40;99.90;;;;;;5033315;28;20223;-84
2022/04/02 00:21:06;;;;;;;3.33;2.10;;;3.40;99.90;;;;;;5020061;28;20209;-84
2022/04/02 00:23:35;;;;;;;2.23;1.60;;;3.40;1.00;;;;;;5038640;28;20221;-85
2022/04/02 00:26:03;;;;;;;6.33;1.90;;;3.40;99.90;;;;;;5037584;28;20778;-84
2022/04/02 00:28:36;;;;;;;1.90;1.70;;;3.30;48.80;;;;;;5032502;28;20292;-85
2022/04/02 00:31:04;;;;;;;6.53;2.07;;;3.40;1.00;;;;;;5033239;28;20624;-85
2022/04/02 00:33:31;;;;;;;3.07;1.80;;;3.50;1.00;;;;;;5036327;28;20232;-85
2022/04/02 00:35:58;;;;;;;3.20;2.07;;;3.30;1.00;;;;;;5053355;28;20282;-84
2022/04/02 00:38:26;;;;;;;1.40;1.30;;;3.40;99.90;;;;;;5036403;28;20220;-85
2022/04/02 00:40:53;;;;;;;4.73;2.10;;;3.30;1.00;;;;;;5031946;28;20209;-86
2022/04/02 00:43:27;;;;;;;2.30;1.80;;;3.40;99.90;;;;;;5019457;28;20232;-85
2022/04/02 00:45:57;;;;;;;2.47;1.83;;;3.50;99.90;;;;;;5032238;28;20325;-86
2022/04/02 00:48:29;;;;;;;2.47;1.57;;;3.40;99.90;;;;;;5033096;28;20210;-85
2022/04/02 00:50:58;;;;;;;2.57;1.70;;;3.50;1.00;;;;;;5032297;28;20201;-85
2022/04/02 00:53:30;;;;;;;3.33;1.80;;;3.50;99.90;;;;;;5035187;28;20206;-85
2022/04/02 00:55:58;;;;;;;1.93;1.40;;;3.40;1.00;;;;;;5033024;28;20269;-85
2022/04/02 00:58:25;;;;;;;2.70;1.90;;;3.40;1.00;;;;;;5028454;28;20289;-85
2022/04/02 01:00:52;;;;;;;2.47;1.83;;;3.40;1.00;;;;;;5032744;28;20282;-86
2022/04/02 01:03:19;;;;;;;3.33;1.67;;;3.30;1.00;;;;;;5032485;28;20246;-86
2022/04/02 01:05:48;;;;;;;3.80;1.37;;;3.30;1.00;;;;;;5030321;28;20306;-85
2022/04/02 01:08:15;;;;;;;3.73;1.60;;;3.30;99.90;;;;;;5032810;28;20198;-85
2022/04/02 01:10:42;;;;;;;3.97;1.93;;;3.40;1.00;;;;;;5032535;28;20492;-86
2022/04/02 01:13:12;;;;;;;2.73;1.57;;;3.30;99.90;;;;;;5017730;28;20226;-84
2022/04/02 01:15:40;;;;;;;2.33;1.70;;;3.30;1.00;;;;;;5034342;28;20199;-85
2022/04/02 01:18:07;;;;;;;3.30;2.03;;;3.40;1.00;;;;;;5030653;28;20206;-87
2022/04/02 01:20:35;;;;;;;4.37;2.00;;;3.40;1.00;;;;;;5051742;28;20224;-84
2022/04/02 01:23:02;;;;;;;3.30;1.70;;;3.30;1.00;;;;;;5031967;28;20206;-85
2022/04/02 01:25:34;;;;;;;2.20;1.90;;;3.30;1.00;;;;;;5030554;28;20289;-85
2022/04/02 01:28:02;;;;;;;2.93;1.90;;;3.20;1.00;;;;;;5030694;28;20206;-86
2022/04/02 01:30:30;;;;;;;1.97;1.70;;;3.30;1.00;;;;;;5027894;28;20209;-85
2022/04/02 01:32:57;;;;;;;3.07;1.80;;;3.30;99.90;;;;;;5042245;28;21302;-85
2022/04/02 01:35:25;;;;;;;2.97;1.90;;;3.20;99.90;;;;;;5028105;28;20615;-85
2022/04/02 01:37:52;;;;;;;3.53;1.90;;;3.20;1.00;;;;;;5021342;28;20210;-84
2022/04/02 01:40:20;;;;;;;2.40;1.50;;;3.20;1.00;;;;;;5029591;28;20549;-85
2022/04/02 01:42:47;;;;;;;3.93;1.80;;;3.10;1.00;;;;;;5028763;28;20201;-84
2022/04/02 01:45:15;;;;;;;3.87;1.63;;;3.20;99.90;;;;;;5025028;28;20348;-84
2022/04/02 01:47:42;;;;;;;3.70;1.60;;;3.10;99.90;;;;;;5046861;28;20240;-84
2022/04/02 01:50:10;;;;;;;3.73;1.93;;;3.20;99.90;;;;;;5030335;28;20217;-84
2022/04/02 01:52:38;;;;;;;3.73;1.87;;;3.00;99.90;;;;;;5031965;28;20214;-86
2022/04/02 01:55:05;;;;;;;3.87;1.67;;;3.10;99.90;;;;;;5027609;28;20286;-85
2022/04/02 01:57:32;;;;;;;3.13;1.90;;;3.00;1.00;;;;;;5048034;28;20219;-84
2022/04/02 01:59:59;;;;;;;1.90;1.47;;;3.10;1.00;;;;;;5048347;28;20237;-85
2022/04/02 02:02:26;;;;;;;2.27;1.80;;;3.10;99.90;;;;;;5031710;28;20209;-85
2022/04/02 02:04:53;;;;;;;2.90;1.83;;;3.30;99.90;;;;;;5049314;28;20214;-85
2022/04/02 02:07:20;;;;;;;3.37;1.77;;;3.20;99.90;;;;;;5030584;28;20257;-84
2022/04/02 02:09:47;;;;;;;3.10;1.67;;;3.10;99.90;;;;;;5031123;28;20230;-84
2022/04/02 02:12:15;;;;;;;4.33;1.80;;;3.00;1.00;;;;;;5033283;28;20203;-86
2022/04/02 02:14:42;;;;;;;2.00;1.77;;;3.00;1.00;;;;;;5032361;28;20198;-84
2022/04/02 02:17:09;;;;;;;4.27;1.53;;;3.00;1.00;;;;;;5050152;28;20267;-84
2022/04/02 02:19:36;;;;;;;2.67;1.80;;;3.00;1.00;;;;;;5045992;28;20656;-85
2022/04/02 02:22:04;;;;;;;2.73;1.93;;;3.00;99.90;;;;;;5032276;28;20367;-87
2022/04/02 02:24:32;;;;;;;2.80;1.57;;;3.00;99.90;;;;;;5031437;28;20204;-85
2022/04/02 02:26:59;;;;;;;2.67;1.60;;;3.00;99.90;;;;;;5034790;28;20223;-85
2022/04/02 02:29:26;;;;;;;2.70;1.40;;;2.90;1.00;;;;;;5032106;28;20207;-84
2022/04/02 02:31:53;;;;;;;6.30;1.80;;;3.00;1.00;;;;;;5035661;28;20386;-84
2022/04/02 02:37:09;;;;;;;4.23;1.60;;;2.90;1.00;;;;;;5052406;28;20209;-87
2022/04/02 02:39:36;;;;;;;2.33;1.73;;;2.80;1.00;;;;;;5051204;28;20323;-85
2022/04/02 02:42:03;;;;;;;2.77;1.83;;;2.80;1.00;;;;;;5036645;28;20253;-86
2022/04/02 02:44:30;;;;;;;5.53;1.63;;;2.80;99.90;;;;;;5037365;28;20718;-87
2022/04/02 02:46:57;;;;;;;3.30;1.50;;;2.90;1.00;;;;;;5034781;28;20210;-86
2022/04/02 02:49:23;;;;;;;2.30;1.60;;;2.90;99.90;;;;;;5035079;28;20220;-83
2022/04/02 02:51:52;;;;;;;1.90;1.43;;;3.00;99.90;;;;;;5036287;28;20254;-84
2022/04/02 02:54:18;;;;;;;2.30;1.70;;;2.90;1.00;;;;;;5037638;28;20202;-84
2022/04/02 02:56:45;;;;;;;3.57;2.00;;;2.80;1.00;;;;;;5037168;28;20264;-85
2022/04/02 02:59:12;;;;;;;2.13;1.53;;;2.80;1.00;;;;;;5039162;28;20275;-86
2022/04/02 03:01:39;;;;;;;1.80;1.30;;;2.90;1.00;;;;;;5036989;28;20214;-85
2022/04/02 03:04:06;;;;;;;3.77;1.67;;;2.80;1.00;;;;;;5056311;28;20198;-85
2022/04/02 03:06:33;;;;;;;2.00;1.60;;;2.80;1.00;;;;;;5055176;28;20236;-86
2022/04/02 03:09:00;;;;;;;2.20;1.40;;;2.80;1.00;;;;;;5032907;28;20206;-85
2022/04/02 03:11:27;;;;;;;1.87;1.63;;;2.90;1.00;;;;;;5033265;28;20196;-86
2022/04/02 03:13:54;;;;;;;2.23;1.53;;;2.80;1.00;;;;;;5050965;28;20752;-87
2022/04/02 03:16:21;;;;;;;2.83;1.80;;;2.80;1.00;;;;;;5033891;28;20411;-86
2022/04/02 03:18:48;;;;;;;2.77;1.77;;;2.90;1.00;;;;;;5031447;28;20237;-85
2022/04/02 03:21:16;;;;;;;2.50;1.30;;;2.80;87.20;;;;;;5034767;28;20196;-87
2022/04/02 03:23:42;;;;;;;3.23;1.40;;;2.80;1.00;;;;;;5032960;28;20217;-87
2022/04/02 03:26:09;;;;;;;4.03;1.83;;;2.80;1.00;;;;;;5032268;28;20210;-86
2022/04/02 03:28:36;;;;;;;2.20;1.30;;;2.80;1.00;;;;;;5034651;28;20602;-85
2022/04/02 03:31:03;;;;;;;3.20;1.57;;;2.70;1.00;;;;;;5028359;28;20382;-86
2022/04/02 03:33:30;;;;;;;2.70;1.30;;;2.80;1.00;;;;;;5040781;28;20222;-85
2022/04/02 03:35:57;;;;;;;3.43;1.60;;;2.70;1.00;;;;;;5029551;28;20298;-85
2022/04/02 03:38:24;;;;;;;2.90;1.80;;;2.70;1.00;;;;;;5027404;28;20207;-86
2022/04/02 03:40:51;;;;;;;2.40;1.40;;;2.70;1.00;;;;;;5028396;28;20209;-87
2022/04/02 03:43:18;;;;;;;3.10;1.60;;;2.70;1.00;;;;;;5027873;28;20252;-86
2022/04/02 03:45:45;;;;;;;4.27;1.83;;;2.60;1.00;;;;;;5027794;28;20205;-86
2022/04/02 03:48:12;;;;;;;3.53;1.50;;;2.70;1.00;;;;;;5028189;28;20242;-86
2022/04/02 03:50:40;;;;;;;3.17;1.40;;;2.70;1.00;;;;;;5027339;28;20193;-88
2022/04/02 03:53:07;;;;;;;2.20;1.40;;;2.70;1.00;;;;;;5027135;28;20281;-85
2022/04/02 03:55:34;;;;;;;2.00;1.30;;;2.70;99.90;;;;;;4994360;28;20664;-88
2022/04/02 03:58:00;;;;;;;2.13;1.47;;;2.70;99.90;;;;;;5028852;28;20737;-87
2022/04/02 04:00:27;;;;;;;2.40;1.50;;;2.60;1.00;;;;;;5009947;28;20238;-83
2022/04/02 04:02:54;;;;;;;2.63;1.50;;;2.60;1.00;;;;;;5005385;28;20208;-88
2022/04/02 04:05:23;;;;;;;3.33;1.70;;;2.60;1.00;;;;;;4988803;28;20219;-85
2022/04/02 04:07:51;;;;;;;2.27;1.50;;;2.60;1.00;;;;;;5008950;28;20231;-88
2022/04/02 04:10:18;;;;;;;3.40;1.90;;;2.60;1.00;;;;;;5014767;28;20496;-88
2022/04/02 04:12:47;;;;;;;3.13;1.70;;;2.60;1.00;;;;;;5012399;28;20650;-87
2022/04/02 04:15:14;;;;;;;3.30;1.50;;;2.60;1.00;;;;;;4993173;28;20223;-87
2022/04/02 04:17:42;;;;;;;2.10;1.37;;;2.60;1.00;;;;;;4996331;28;20214;-87
2022/04/02 04:20:09;;;;;;;2.93;1.60;;;2.60;1.00;;;;;;4993399;28;20579;-87
2022/04/02 04:22:36;;;;;;;2.03;1.50;;;2.60;99.90;;;;;;4997103;28;20225;-86
2022/04/02 04:25:04;;;;;;;2.23;1.47;;;2.60;99.90;;;;;;4976478;28;20563;-86
2022/04/02 04:27:31;;;;;;;4.40;1.53;;;2.60;99.90;;;;;;4993629;28;20278;-86
2022/04/02 04:29:59;;;;;;;3.57;1.30;;;2.60;1.00;;;;;;4993301;28;20261;-84
2022/04/02 04:32:26;;;;;;;2.67;1.40;;;2.60;99.90;;;;;;4995369;28;20192;-89
2022/04/02 04:34:52;;;;;;;2.40;1.80;;;2.60;1.00;;;;;;5011956;28;20215;-88
2022/04/02 04:37:19;;;;;;;3.60;1.53;;;2.60;99.90;;;;;;4996947;28;20231;-86
2022/04/02 04:39:46;;;;;;;4.13;1.70;;;2.50;1.00;;;;;;4994784;28;20277;-85
2022/04/02 04:42:13;;;;;;;2.83;1.63;;;2.60;1.00;;;;;;4995283;28;20209;-88
2022/04/02 04:44:40;;;;;;;2.00;1.60;;;2.60;1.00;;;;;;5007527;28;20713;-85
2022/04/02 04:47:07;;;;;;;2.30;1.77;;;2.60;1.00;;;;;;4993586;28;20231;-83
2022/04/02 04:49:34;;;;;;;5.60;1.50;;;2.70;1.00;;;;;;5010271;28;20267;-85
2022/04/02 04:52:01;;;;;;;2.00;1.50;;;2.60;1.00;;;;;;4995681;28;20638;-85
2022/04/02 04:54:28;;;;;;;1.50;1.40;;;2.60;1.00;;;;;;4997104;28;20281;-86
2022/04/02 04:56:55;;;;;;;3.57;1.80;;;2.60;1.00;;;;;;4981036;28;20791;-86
2022/04/02 04:59:22;;;;;;;3.27;2.03;;;2.60;1.00;;;;;;4996145;28;20290;-86
2022/04/02 05:01:49;;;;;;;1.70;1.33;;;2.50;1.00;;;;;;4968316;28;20260;-83
2022/04/02 05:04:15;;;;;;;4.63;1.60;;;2.60;1.00;;;;;;4997450;28;21819;-83
2022/04/02 05:06:42;;;;;;;3.93;1.70;;;2.60;1.00;;;;;;4994747;28;20225;-84
2022/04/02 05:09:10;;;;;;;2.03;1.40;;;2.50;99.90;;;;;;5011801;28;20201;-86
2022/04/02 05:11:37;;;;;;;2.93;1.33;;;2.60;99.90;;;;;;4996414;28;20225;-85
2022/04/02 05:14:04;;;;;;;1.93;1.67;;;2.50;99.90;;;;;;4998317;28;20261;-85
2022/04/02 05:16:31;;;;;;;6.03;1.90;;;2.50;99.90;;;;;;4997196;28;20202;-86
2022/04/02 05:18:59;;;;;;;3.00;1.50;;;2.50;1.00;;;;;;4993346;28;20222;-85
2022/04/02 05:21:26;;;;;;;8.97;1.63;;;2.60;99.90;;;;;;5011934;28;20603;-85
2022/04/02 05:23:53;;;;;;;3.73;1.90;;;2.70;99.90;;;;;;4995630;28;20207;-88
2022/04/02 05:26:20;;;;;;;4.30;1.70;;;2.70;99.90;;;;;;4996722;28;20229;-85
2022/04/02 05:28:51;;;;;;;2.10;1.63;;;2.70;99.90;;;;;;4994691;28;20297;-86
2022/04/02 05:31:18;;;;;;;2.57;1.73;;;2.70;27.20;;;;;;4992288;28;20235;-85
2022/04/02 05:33:45;;;;;;;2.10;1.63;;;2.70;99.90;;;;;;5001751;28;20261;-85
2022/04/02 05:36:13;;;;;;;5.80;2.27;;;2.70;96.10;;;;;;4997025;28;20271;-88
2022/04/02 05:38:39;;;;;;;3.90;1.77;;;2.70;50.50;;;;;;4993345;28;20268;-87
2022/04/02 05:41:06;;;;;;;3.40;1.73;;;2.70;1.00;;;;;;4992346;28;20220;-85
2022/04/02 05:43:33;;;;;;;2.70;1.40;;;2.70;22.70;;;;;;4992346;28;20275;-85
2022/04/02 05:46:00;;;;;;;4.30;1.63;;;2.70;1.00;;;;;;4993488;28;20245;-83
2022/04/02 05:48:30;;;;;;;1.73;1.53;;;2.70;1.00;;;;;;5007558;28;20685;-88
2022/04/02 05:50:57;;;;;;;2.73;1.60;;;2.70;90.30;;;;;;5009162;28;20201;-88
2022/04/02 05:53:23;;;;;;;5.00;1.80;;;2.70;1.00;;;;;;4994376;28;20204;-86
2022/04/02 05:55:50;;;;;;;4.80;1.47;;;2.80;99.90;;;;;;4992452;28;20318;-85
2022/04/02 05:58:17;;;;;;;4.70;1.77;;;2.80;1.00;;;;;;4990745;28;20259;-87
2022/04/02 06:00:44;;;;;;;3.30;2.03;;;2.90;1.00;;;;;;5005365;28;20330;-85
2022/04/02 06:03:15;;;;;;;2.10;1.53;;;2.90;1.00;;;;;;5012519;28;20206;-86
2022/04/02 06:05:44;;;;;;;3.07;1.60;;;2.90;1.00;;;;;;5008129;28;20622;-86
2022/04/02 06:08:10;;;;;;;2.50;1.30;;;2.90;1.00;;;;;;5035383;28;21699;-87
2022/04/02 06:10:37;;;;;;;2.13;1.70;;;2.90;1.00;;;;;;5023936;28;20216;-83
2022/04/02 06:13:05;;;;;;;3.10;1.70;;;2.90;1.00;;;;;;5020082;28;20196;-87
2022/04/02 06:15:31;;;;;;;2.47;1.77;;;2.80;1.00;;;;;;5012349;28;20246;-86
2022/04/02 06:17:58;;;;;;;2.83;1.70;;;2.90;1.00;;;;;;5015947;28;20257;-83
2022/04/02 06:20:25;;;;;;;2.57;1.50;;;2.90;1.00;;;;;;5014397;28;20213;-86
2022/04/02 06:22:53;;;;;;;2.40;1.90;;;2.90;1.00;;;;;;5014080;28;20219;-89
2022/04/02 06:25:20;;;;;;;2.97;1.67;;;2.90;1.00;;;;;;5030548;28;20201;-86
2022/04/02 06:27:47;;;;;;;4.13;1.90;;;2.90;99.90;;;;;;5010691;28;20299;-86
2022/04/02 06:30:19;;;;;;;3.00;1.30;;;2.90;99.90;;;;;;5027821;28;20298;-87
2022/04/02 06:32:53;;;;;;;3.27;1.77;;;3.00;99.90;;;;;;5029203;28;20281;-88
2022/04/02 06:35:20;;;;;;;3.20;1.87;;;2.90;99.90;;;;;;5012439;28;21481;-89
2022/04/02 06:37:48;;;;;;;3.43;1.93;;;3.00;99.90;;;;;;5012020;28;20222;-85
2022/04/02 06:40:16;;;;;;;4.73;1.60;;;3.10;99.90;;;;;;5009604;28;20209;-84
2022/04/02 06:42:43;;;;;;;1.93;1.33;;;3.10;96.90;;;;;;5009124;28;20643;-85
2022/04/02 06:45:10;;;;;;;3.30;1.73;;;3.00;99.90;;;;;;5007838;28;20272;-84
2022/04/02 06:47:37;;;;;;;2.03;1.50;;;3.00;1.00;;;;;;5027558;28;20322;-84
2022/04/02 06:50:10;;;;;;;3.40;1.70;;;3.30;99.90;;;;;;5008069;28;20227;-84
2022/04/02 06:52:38;;;;;;;2.37;1.50;;;3.30;1.00;;;;;;5028230;28;20312;-83
2022/04/02 06:55:05;;;;;;;2.70;1.83;;;3.20;1.00;;;;;;5010379;28;20227;-85
2022/04/02 06:57:32;;;;;;;5.37;2.00;;;3.30;1.00;;;;;;5010272;28;20215;-84
2022/04/02 06:59:59;;;;;;;2.57;1.60;;;3.30;1.00;;;;;;5025074;28;20323;-83
2022/04/02 07:02:26;;;;;;;3.67;2.10;;;3.40;1.00;;;;;;5008571;28;20240;-85
2022/04/02 07:04:53;;;;;;;3.43;1.50;;;3.40;99.90;;;;;;5011004;28;20214;-85
2022/04/02 07:07:20;;;;;;;4.33;1.70;;;3.50;99.90;;;;;;5025909;28;20726;-83
2022/04/02 07:09:46;;;;;;;2.70;1.70;;;3.60;1.00;;;;;;5007840;28;20291;-84
2022/04/02 07:12:13;;;;;;;2.13;1.47;;;3.60;1.00;;;;;;5024751;28;20214;-83
2022/04/02 07:14:40;;;;;;;4.93;2.10;;;3.60;99.90;;;;;;5008276;28;20714;-87
2022/04/02 07:17:07;;;;;;;3.00;1.90;;;3.80;99.90;;;;;;5007781;28;20209;-85
2022/04/02 07:19:37;;;;;;;2.93;1.80;;;3.90;99.90;;;;;;5009069;28;20675;-84
2022/04/02 07:22:08;;;;;;;2.97;2.00;;;4.00;1.00;;;;;;5008545;28;20237;-86
2022/04/02 07:24:40;;;;;;;4.90;2.10;;;4.00;64.50;;;;;;5009636;28;20209;-84
2022/04/02 07:27:07;;;;;;;2.73;1.77;;;4.20;1.00;;;;;;5004460;28;20230;-82
2022/04/02 07:29:35;;;;;;;5.63;1.80;;;4.10;92.10;;;;;;5025719;28;20666;-86
2022/04/02 07:32:03;;;;;;;2.93;1.70;;;4.20;1.00;;;;;;5009534;28;20212;-83
2022/04/02 07:34:30;;;;;;;3.83;1.90;;;4.20;1.00;;;;;;5009191;28;20203;-83
2022/04/02 07:37:15;;;;;;;3.63;2.07;;;4.30;1.00;;;;;;5005332;28;20232;-85
2022/04/02 07:40:00;;;;;;;2.53;1.80;;;4.20;1.00;;;;;;5009180;28;20197;-84
2022/04/02 07:42:57;;;;;;;3.37;1.90;;;4.30;99.90;;;;;;5022209;28;20204;-84
2022/04/02 07:45:30;;;;;;;6.03;2.03;;;4.40;92.50;;;;;;5025180;28;20283;-87
2022/04/02 07:47:59;;;;;;;5.87;2.20;;;4.70;58.90;;;;;;5021970;28;20251;-86
2022/04/02 07:50:27;;;;;;;4.10;1.93;;;4.80;1.00;;;;;;5006340;28;20681;-85
2022/04/02 07:52:55;;;;;;;5.90;2.20;;;4.90;1.00;;;;;;5010359;28;20219;-85
2022/04/02 07:55:24;;;;;;;5.27;2.60;;;4.90;99.90;;;;;;5008476;28;20222;-89
2022/04/02 07:57:52;;;;;;;4.30;2.27;;;4.90;99.90;;;;;;5008115;28;20651;-89
2022/04/02 08:00:22;;;;;;;2.57;1.73;;;4.80;99.90;;;;;;4991789;28;20345;-89
2022/04/02 08:02:50;;;;;;;3.03;2.00;;;4.70;1.00;;;;;;5004013;28;20234;-91
2022/04/02 08:05:22;;;;;;;4.60;2.20;;;4.80;99.90;;;;;;4991199;28;20233;-87
2022/04/02 08:07:54;;;;;;;2.97;2.00;;;5.10;1.00;;;;;;4982444;28;20233;-84
2022/04/02 08:10:24;;;;;;;4.77;2.20;;;5.50;1.00;;;;;;4984168;28;20224;-82
2022/04/02 08:12:54;;;;;;;3.07;2.00;;;5.50;1.00;;;;;;4982094;28;20219;-82
2022/04/02 08:15:22;;;;;;;4.57;2.00;;;5.80;1.00;;;;;;4968333;28;20238;-80
2022/04/02 08:17:54;;;;;;;3.13;1.83;;;5.70;99.90;;;;;;4998010;28;20357;-81
2022/04/02 08:20:23;;;;;;;3.03;2.30;;;5.60;1.00;;;;;;4979752;28;20324;-84
2022/04/02 08:22:51;;;;;;;2.93;1.97;;;5.60;1.00;;;;;;4980641;28;20751;-81
2022/04/02 08:25:18;;;;;;;7.40;2.20;;;5.70;99.90;;;;;;4999643;28;20548;-82
2022/04/02 08:28:04;;;;;;;4.27;2.17;;;5.70;1.00;;;;;;4987232;28;20296;-83
2022/04/02 08:30:44;;;;;;;3.23;1.90;;;5.90;1.00;;;;;;4989503;28;20911;-83
2022/04/02 08:33:37;;;;;;;3.90;1.97;;;5.70;1.00;;;;;;5006511;28;20209;-82
2022/04/02 08:36:30;;;;;;;3.43;2.10;;;5.90;99.90;;;;;;5005432;28;20220;-82
2022/04/02 08:39:20;;;;;;;3.77;2.30;;;6.30;95.90;;;;;;5004160;28;20217;-83
2022/04/02 08:42:09;;;;;;;2.17;1.70;;;6.40;1.00;;;;;;5007098;28;20222;-80
2022/04/02 08:44:54;;;;;;;3.33;2.30;;;6.40;1.00;;;;;;4984868;28;20217;-81
2022/04/02 08:47:42;;;;;;;3.07;2.23;;;6.40;87.40;;;;;;4985357;28;20206;-81
2022/04/02 08:50:14;;;;;;;5.33;1.97;;;6.50;1.00;;;;;;5003165;28;20225;-82
2022/04/02 08:52:51;;;;;;;3.53;2.30;;;7.00;1.00;;;;;;4987565;28;20213;-82
2022/04/02 08:55:26;;;;;;;3.70;2.30;;;6.90;1.00;;;;;;4985165;28;20237;-82
2022/04/02 08:57:53;;;;;;;3.77;2.23;;;7.10;1.00;;;;;;5002921;28;21908;-80
2022/04/02 09:00:25;;;;;;;3.87;2.30;;;6.80;1.00;;;;;;5018932;28;20778;-83
2022/04/02 09:03:17;;;;;;;2.10;1.90;;;7.10;1.00;;;;;;5005215;28;20204;-82
2022/04/02 09:06:03;;;;;;;5.23;2.53;;;7.10;1.00;;;;;;5002431;28;20209;-82
2022/04/02 09:08:49;;;;;;;3.57;2.50;;;8.00;99.90;;;;;;5026593;28;20310;-81
2022/04/02 09:11:26;;;;;;;4.33;2.13;;;8.40;1.00;;;;;;5020454;28;20220;-82
2022/04/02 09:14:08;;;;;;;3.03;1.90;;;8.30;99.90;;;;;;5022866;28;20570;-83
2022/04/02 09:16:49;;;;;;;2.90;2.00;;;7.70;49.20;;;;;;5002428;28;20306;-81
2022/04/02 09:19:44;;;;;;;3.60;2.10;;;7.40;99.90;;;;;;4996810;28;20301;-81
2022/04/02 09:22:44;;;;;;;7.33;2.60;;;8.00;1.00;;;;;;5002462;28;20603;-80
2022/04/02 09:26:01;;;;;;;4.40;2.37;;;7.70;1.00;;;;;;5020417;28;20216;-80
2022/04/02 09:28:54;;;;;;;4.33;2.50;;;6.80;1.00;;;;;;5024317;28;20248;-81
2022/04/02 09:31:42;;;;;;;3.67;2.17;;;6.80;99.90;;;;;;5027435;28;20642;-82
2022/04/02 09:34:09;;;;;;;3.97;1.93;;;6.50;99.90;;;;;;5026634;28;20307;-82
2022/04/02 09:36:51;;;;;;;3.03;1.97;;;6.50;1.00;;;;;;5025158;28;20250;-81
2022/04/02 09:39:42;;;;;;;2.87;2.00;;;7.00;1.00;;;;;;5025590;28;20215;-81
2022/04/02 09:42:46;;;;;;;3.83;2.10;;;6.90;99.90;;;;;;5012937;28;20734;-81
2022/04/02 09:45:27;;;;;;;5.93;2.50;;;6.50;99.90;;;;;;4990748;28;20500;-83
2022/04/02 09:48:10;;;;;;;3.90;2.17;;;7.50;99.90;;;;;;5009247;28;20221;-81
2022/04/02 09:50:39;;;;;;;2.87;2.13;;;7.80;1.00;;;;;;5028596;28;20209;-82
2022/04/02 09:53:12;;;;;;;4.43;2.13;;;7.30;1.00;;;;;;5029802;28;20196;-83
2022/04/02 09:55:44;;;;;;;6.07;2.63;;;7.20;99.90;;;;;;5030325;28;20244;-82
2022/04/02 09:58:35;;;;;;;3.27;2.30;;;7.80;1.00;;;;;;5004299;28;20305;-81
2022/04/02 10:01:08;;;;;;;2.47;1.77;;;8.20;1.00;;;;;;4987199;28;20607;-81
2022/04/02 10:03:57;;;;;;;3.57;2.07;;;8.40;1.00;;;;;;5023682;28;20298;-82
2022/04/02 10:06:25;;;;;;;3.97;2.33;;;8.40;1.00;;;;;;5018467;28;20297;-82
2022/04/02 10:09:03;;;;;;;2.90;2.07;;;8.10;1.00;;;;;;5010829;28;20305;-82
2022/04/02 10:11:34;;;;;;;4.90;2.30;;;7.50;1.00;;;;;;5010525;28;20568;-82
2022/04/02 10:14:02;;;;;;;2.83;1.97;;;7.30;99.20;;;;;;5009879;28;20247;-82
2022/04/02 10:16:31;;;;;;;4.37;2.27;;;6.80;99.90;;;;;;5009929;28;20226;-81
2022/04/02 10:18:59;;;;;;;2.97;1.90;;;6.70;99.90;;;;;;5006514;28;20220;-80
2022/04/02 10:21:31;;;;;;;3.40;1.90;;;6.40;99.90;;;;;;5009694;28;20235;-81
2022/04/02 10:24:21;;;;;;;4.13;1.90;;;6.20;99.90;;;;;;5011146;28;20658;-83
2022/04/02 10:27:01;;;;;;;2.33;1.80;;;6.30;46.90;;;;;;5007579;28;20325;-82
2022/04/02 10:30:11;;;;;;;3.97;2.20;;;6.40;1.00;;;;;;5008452;28;20716;-82
2022/04/02 10:35:57;;;;;;;4.03;2.80;;;7.10;1.00;;;;;;4992010;28;20289;-82
2022/04/02 10:38:36;;;;;;;2.40;2.20;;;7.10;99.90;;;;;;5009156;28;20240;-80
2022/04/02 10:41:16;;;;;;;5.17;2.40;;;6.80;1.00;;;;;;5009765;28;20667;-79
2022/04/02 10:43:48;;;;;;;2.73;2.00;;;6.80;99.90;;;;;;5009817;28;20249;-83
2022/04/02 10:46:19;;;;;;;3.40;1.80;;;7.30;1.00;;;;;;5007232;28;20473;-81
2022/04/02 10:48:59;;;;;;;3.17;2.07;;;7.30;1.00;;;;;;5005876;28;20337;-81
2022/04/02 10:51:29;;;;;;;2.50;2.00;;;7.10;1.00;;;;;;5006733;28;20231;-80
2022/04/02 10:54:07;;;;;;;2.30;1.90;;;6.90;1.00;;;;;;5009463;28;20256;-80
2022/04/02 10:56:38;;;;;;;5.83;2.33;;;6.90;1.00;;;;;;5007194;28;20267;-83
2022/04/02 10:59:08;;;;;;;2.83;1.50;;;7.40;1.00;;;;;;5007505;28;20832;-81
2022/04/02 11:01:39;;;;;;;3.27;2.17;;;7.80;99.90;;;;;;5007283;28;20289;-81
2022/04/02 11:04:43;;;;;;;2.10;1.80;;;8.40;99.90;;;;;;4989926;28;20258;-80
2022/04/02 11:07:10;;;;;;;4.53;1.97;;;8.10;99.90;;;;;;5009270;28;20225;-83
2022/04/02 11:09:41;;;;;;;3.03;1.77;;;8.60;99.90;;;;;;4983952;28;20290;-81
2022/04/02 11:12:13;;;;;;;2.27;1.83;;;8.40;82.80;;;;;;4986059;28;20604;-81
2022/04/02 11:14:41;;;;;;;2.27;1.40;;;8.10;99.90;;;;;;5007676;28;20297;-81
2022/04/02 11:17:25;;;;;;;2.83;1.90;;;7.80;99.90;;;;;;5007665;28;20741;-81
2022/04/02 11:19:55;;;;;;;1.83;1.70;;;7.50;99.90;;;;;;5005595;28;20286;-80
2022/04/02 11:22:38;;;;;;;2.97;1.80;;;7.40;99.90;;;;;;4998070;28;20636;-80
2022/04/02 11:25:13;;;;;;;1.60;1.20;;;7.20;99.90;;;;;;5009139;28;20204;-81
2022/04/02 11:27:41;;;;;;;2.00;1.50;;;7.20;99.90;;;;;;5001582;28;20275;-81
2022/04/02 11:30:11;;;;;;;2.50;1.73;;;7.10;99.90;;;;;;5008826;28;20221;-81
2022/04/02 11:32:39;;;;;;;3.07;1.60;;;7.50;99.90;;;;;;5008805;28;20281;-80
2022/04/02 11:35:18;;;;;;;2.93;1.73;;;7.90;99.90;;;;;;5007286;28;20225;-81
2022/04/02 11:38:17;;;;;;;2.93;1.30;;;8.50;99.90;;;;;;4991575;28;20207;-80
2022/04/02 11:40:52;;;;;;;2.53;1.60;;;8.80;1.00;;;;;;5003365;28;20210;-81
2022/04/02 11:43:29;;;;;;;1.93;1.27;;;9.90;1.00;;;;;;4983739;28;20208;-81
2022/04/02 11:46:01;;;;;;;3.00;1.40;;;9.20;1.00;;;;;;4991933;28;20220;-80
2022/04/02 11:48:32;;;;;;;2.33;1.50;;;8.60;1.00;;;;;;4989218;28;20216;-82
2022/04/02 11:51:26;;;;;;;1.80;1.20;;;8.10;14.60;;;;;;5006268;28;20293;-82
2022/04/02 11:54:04;;;;;;;1.77;1.30;;;7.60;65.10;;;;;;5006498;28;20588;-81
2022/04/02 11:56:44;;;;;;;1.47;1.00;;;7.50;65.00;;;;;;5008032;28;20221;-81
2022/04/02 11:59:17;;;;;;;2.27;1.47;;;7.40;99.90;;;;;;5012527;28;20314;-82
2022/04/02 12:01:49;;;;;;;2.23;1.30;;;7.40;99.90;;;;;;5003449;28;20204;-81
2022/04/02 12:04:19;;;;;;;1.53;1.23;;;7.30;99.90;;;;;;5008226;28;20226;-82
2022/04/02 12:06:48;;;;;;;1.93;1.53;;;7.10;99.90;;;;;;5026307;28;20226;-80
2022/04/02 12:09:19;;;;;;;2.67;1.17;;;6.80;99.90;;;;;;5028658;28;20322;-81
2022/04/02 12:11:57;;;;;;;2.27;1.27;;;6.90;99.90;;;;;;5010513;28;20682;-80
2022/04/02 12:14:39;;;;;;;2.90;1.27;;;7.10;99.90;;;;;;5010456;28;20209;-81
2022/04/02 12:17:09;;;;;;;1.73;1.10;;;7.40;99.90;;;;;;5007658;28;20287;-81
2022/04/02 12:19:44;;;;;;;1.60;1.10;;;7.40;99.90;;;;;;5015687;28;20210;-81
2022/04/02 12:22:31;;;;;;;3.80;1.33;;;7.80;99.90;;;;;;5021971;28;20218;-83
2022/04/02 12:25:06;;;;;;;2.57;1.20;;;7.70;94.20;;;;;;5023780;28;20216;-81
2022/04/02 12:27:38;;;;;;;2.10;1.40;;;8.00;4.70;;;;;;5006093;28;20220;-80
2022/04/02 12:30:10;;;;;;;2.00;1.27;;;8.30;1.00;;;;;;5008374;28;20236;-81
2022/04/02 12:32:37;;;;;;;1.83;1.67;;;8.00;99.90;;;;;;5001721;28;20217;-81
2022/04/02 12:35:14;;;;;;;1.90;1.60;;;7.50;99.90;;;;;;5009419;28;20243;-80
2022/04/02 12:37:45;;;;;;;2.43;1.60;;;7.20;1.00;;;;;;5027162;28;20987;-82
2022/04/02 12:40:27;;;;;;;3.03;1.63;;;7.10;1.00;;;;;;5026185;28;20292;-81
2022/04/02 12:43:01;;;;;;;2.60;1.80;;;7.10;1.00;;;;;;5027089;28;20200;-80
2022/04/02 12:45:33;;;;;;;3.23;1.77;;;6.90;1.00;;;;;;5009262;28;20211;-82
2022/04/02 12:48:11;;;;;;;2.73;1.70;;;6.80;1.00;;;;;;5002544;28;20217;-81
2022/04/02 12:51:01;;;;;;;5.73;2.10;;;6.80;1.00;;;;;;5025846;28;20312;-81
2022/04/02 12:53:35;;;;;;;3.10;1.57;;;6.80;1.00;;;;;;5028520;28;20201;-83
2022/04/02 12:56:14;;;;;;;4.53;1.90;;;6.90;1.00;;;;;;5027946;28;20280;-82
2022/04/02 12:58:43;;;;;;;4.40;2.10;;;7.30;1.00;;;;;;5026984;28;20208;-81
2022/04/02 13:01:13;;;;;;;2.87;1.50;;;7.80;1.00;;;;;;5024330;28;20201;-81
2022/04/02 13:04:08;;;;;;;5.10;1.50;;;7.90;1.00;;;;;;5025541;28;20209;-79
2022/04/02 13:06:39;;;;;;;2.53;1.40;;;8.10;1.00;;;;;;5022840;28;20223;-80
2022/04/02 13:09:13;;;;;;;1.97;1.50;;;7.70;99.90;;;;;;5002332;28;20322;-83
2022/04/02 13:11:59;;;;;;;5.13;1.97;;;7.40;99.90;;;;;;5026971;28;20207;-81
2022/04/02 13:14:35;;;;;;;1.47;1.37;;;7.40;1.00;;;;;;5016164;28;20550;-80
2022/04/02 13:17:11;;;;;;;1.70;1.37;;;7.70;1.00;;;;;;5009727;28;20210;-82
2022/04/02 13:22:40;;;;;;;2.70;1.20;;;7.40;99.90;;;;;;5031056;28;20223;-81
2022/04/02 13:25:14;;;;;;;1.60;1.30;;;7.80;99.90;;;;;;5011519;28;20261;-81
2022/04/02 13:28:12;;;;;;;2.23;1.10;;;8.20;99.90;;;;;;5022332;28;20196;-80
2022/04/02 13:30:44;;;;;;;4.83;1.57;;;8.10;89.50;;;;;;5019713;28;20265;-83
2022/04/02 13:34:00;;;;;;;2.27;1.40;;;8.60;99.90;;;;;;5004153;28;20233;-81
2022/04/02 13:36:34;;;;;;;3.60;1.10;;;9.00;99.90;;;;;;5011173;28;20640;-80